Time;durP1;ratioP1;P1;durP2;ratioP2;P2;SDS_P1;SDS_P2;PMS_P1;PMS_P2;Temp;Humidity;BMP_temperature;BMP_pressure;BME280_temperature;BME280_humidity;BME280_pressure;Samples;Min_cycle;Max_cycle;Signal;HPM_P1;HPM_P2
2022/10/04 00:01:49;;;;;;;11.50;5.87;;;;;;;40.55;35.74;101034.34;6099915;23;20406;-72
2022/10/04 00:04:22;;;;;;;15.70;6.23;;;;;;;40.52;35.79;101029.56;6099823;23;20406;-71
2022/10/04 00:07:13;;;;;;;8.10;5.80;;;;;;;40.54;35.99;101026.50;6099858;23;20413;-72
2022/10/04 00:09:47;;;;;;;6.80;4.17;;;;;;;40.56;36.00;101018.81;6099874;23;20387;-71
2022/10/04 00:12:25;;;;;;;8.40;4.67;;;;;;;40.20;36.27;101014.47;6099795;23;20386;-71
2022/10/04 00:14:54;;;;;;;10.57;5.90;;;;;;;40.54;36.20;101010.19;6099671;23;20452;-72
2022/10/04 00:17:27;;;;;;;20.00;5.60;;;;;;;40.39;36.46;101010.63;6099658;23;20436;-72
2022/10/04 00:19:55;;;;;;;8.93;5.60;;;;;;;40.76;35.55;101001.03;6099838;23;20414;-71
2022/10/04 00:22:34;;;;;;;17.83;6.90;;;;;;;41.14;34.94;100995.72;6099824;23;20393;-71
2022/10/04 00:25:06;;;;;;;11.00;5.13;;;;;;;41.02;34.82;100992.88;6099639;23;20453;-71
2022/10/04 00:27:34;;;;;;;11.60;6.10;;;;;;;41.22;34.72;100991.34;6099650;23;20409;-72
2022/10/04 00:30:03;;;;;;;14.23;6.63;;;;;;;41.28;34.64;100988.13;6099845;23;20461;-72
2022/10/04 00:32:39;;;;;;;12.03;4.50;;;;;;;41.14;35.16;100981.31;6126071;23;20765;-71
2022/10/04 00:35:25;;;;;;;9.77;5.80;;;;;;;41.49;34.32;100973.78;6099677;23;20436;-71
2022/10/04 00:37:57;;;;;;;15.03;5.80;;;;;;;41.42;34.30;100973.53;6080108;23;20450;-71
2022/10/04 00:40:27;;;;;;;14.70;5.90;;;;;;;41.59;34.37;100970.72;6099724;23;20397;-71
2022/10/04 00:43:01;;;;;;;16.50;5.00;;;;;;;41.56;34.42;100966.72;6099532;23;20397;-71
2022/10/04 00:45:40;;;;;;;18.73;5.53;;;;;;;41.83;33.95;100957.28;6099648;23;20408;-71
2022/10/04 00:48:30;;;;;;;12.13;5.37;;;;;;;41.74;34.29;100953.84;6099598;23;20870;-71
2022/10/04 00:51:06;;;;;;;10.87;6.87;;;;;;;41.24;34.49;100942.81;6099204;23;20727;-71
2022/10/04 00:53:56;;;;;;;11.80;5.10;;;;;;;41.43;34.04;100945.16;6099330;23;20444;-71
2022/10/04 00:56:49;;;;;;;11.17;5.57;;;;;;;41.01;34.72;100947.75;6125885;23;20375;-71
2022/10/04 00:59:36;;;;;;;9.27;6.27;;;;;;;41.22;35.11;100953.25;6107486;23;20389;-72
2022/10/04 01:02:19;;;;;;;13.57;5.30;;;;;;;41.02;35.37;100935.72;6099582;23;20426;-71
2022/10/04 01:04:55;;;;;;;12.17;5.80;;;;;;;41.42;34.62;100940.84;6099491;23;20468;-71
2022/10/04 01:07:45;;;;;;;17.27;6.40;;;;;;;41.79;34.07;100945.44;6099520;23;20392;-72
2022/10/04 01:10:28;;;;;;;24.37;8.43;;;;;;;41.55;34.57;100928.91;6099547;23;20394;-72
2022/10/04 01:13:07;;;;;;;15.00;5.50;;;;;;;41.70;34.10;100924.84;6099587;23;20950;-71
2022/10/04 01:15:43;;;;;;;10.17;5.07;;;;;;;41.68;34.12;100918.91;6099427;23;20393;-71
2022/10/04 01:18:15;;;;;;;11.93;5.30;;;;;;;41.45;34.53;100910.25;6099526;23;20473;-71
2022/10/04 01:20:47;;;;;;;13.30;7.00;;;;;;;41.37;34.89;100905.63;6075315;23;20389;-71
2022/10/04 01:23:30;;;;;;;10.83;5.40;;;;;;;41.28;34.85;100908.41;6099349;23;20382;-71
2022/10/04 01:25:56;;;;;;;15.93;6.27;;;;;;;41.55;34.72;100904.41;6125278;23;20830;-71
2022/10/04 01:28:22;;;;;;;13.93;6.80;;;;;;;41.74;34.04;100906.69;6099324;23;20417;-71
2022/10/04 01:30:48;;;;;;;20.07;7.43;;;;;;;41.73;33.85;100903.16;6100118;23;20358;-71
2022/10/04 01:33:14;;;;;;;15.73;6.93;;;;;;;41.67;34.14;100898.25;6075329;23;20397;-71
2022/10/04 01:35:40;;;;;;;12.30;6.53;;;;;;;41.33;34.63;100900.06;6099363;23;20386;-71
2022/10/04 01:38:07;;;;;;;11.00;5.23;;;;;;;41.50;34.75;100899.97;6099315;23;20386;-72
2022/10/04 01:40:44;;;;;;;12.60;5.87;;;;;;;40.95;35.36;100900.88;6125776;23;20698;-71
2022/10/04 01:43:17;;;;;;;11.03;5.20;;;;;;;41.15;34.89;100898.53;6076409;23;20704;-71
2022/10/04 01:45:49;;;;;;;12.77;5.50;;;;;;;41.07;34.87;100902.91;6099622;23;20409;-71
2022/10/04 01:48:22;;;;;;;12.70;7.13;;;;;;;40.73;35.22;100899.16;6076756;23;20379;-71
2022/10/04 01:51:18;;;;;;;15.97;5.70;;;;;;;40.97;35.07;100897.81;6101885;23;20885;-71
2022/10/04 01:53:55;;;;;;;11.80;6.70;;;;;;;40.92;34.88;100892.56;6082904;23;20434;-71
2022/10/04 01:56:26;;;;;;;11.23;5.10;;;;;;;40.85;35.47;100894.94;6127349;23;20910;-71
2022/10/04 01:59:06;;;;;;;13.73;5.00;;;;;;;40.74;35.16;100886.34;6101178;23;20401;-71
2022/10/04 02:01:37;;;;;;;12.10;5.50;;;;;;;40.89;35.56;100880.38;6101100;23;20425;-71
2022/10/04 02:04:15;;;;;;;9.30;5.73;;;;;;;40.89;34.67;100885.81;6101101;23;20878;-71
2022/10/04 02:06:44;;;;;;;19.73;8.23;;;;;;;40.77;35.40;100883.78;6101143;23;20381;-71
2022/10/04 02:09:14;;;;;;;14.30;5.87;;;;;;;40.74;35.21;100884.41;6127376;23;20370;-71
2022/10/04 02:11:43;;;;;;;11.50;6.47;;;;;;;40.63;35.26;100888.59;6127354;23;20362;-71
2022/10/04 02:14:19;;;;;;;16.93;6.47;;;;;;;41.00;35.30;100888.97;6101135;23;20512;-71
2022/10/04 02:16:51;;;;;;;10.20;5.10;;;;;;;41.01;34.76;100893.31;6077780;23;20409;-71
2022/10/04 02:19:18;;;;;;;10.50;5.33;;;;;;;40.77;34.84;100896.59;6127360;23;20746;-71
2022/10/04 02:21:47;;;;;;;11.20;5.20;;;;;;;40.72;35.42;100896.75;6100849;23;20394;-71
2022/10/04 02:24:14;;;;;;;14.90;6.83;;;;;;;40.20;35.68;100885.94;6100726;23;20389;-71
2022/10/04 02:26:40;;;;;;;10.50;5.60;;;;;;;40.12;36.29;100881.31;6100775;23;20409;-71
2022/10/04 02:29:08;;;;;;;8.00;4.90;;;;;;;39.96;36.79;100892.66;6076834;23;20422;-71
2022/10/04 02:34:22;;;;;;;19.23;5.50;;;;;;;40.74;35.24;100880.91;6126796;23;20432;-71
2022/10/04 02:36:50;;;;;;;10.63;4.97;;;;;;;40.21;35.78;100888.38;6100600;23;20453;-71
2022/10/04 02:39:28;;;;;;;11.20;6.40;;;;;;;40.31;35.88;100878.25;6100815;23;20401;-71
2022/10/04 02:42:01;;;;;;;14.23;5.10;;;;;;;40.55;35.34;100881.28;6100727;23;20513;-71
2022/10/04 02:44:30;;;;;;;11.43;5.30;;;;;;;40.53;35.57;100878.09;6100688;23;20473;-71
2022/10/04 02:47:18;;;;;;;23.07;6.23;;;;;;;40.43;35.77;100867.53;6100581;23;20869;-71
2022/10/04 02:50:18;;;;;;;9.27;4.77;;;;;;;40.70;34.88;100871.78;6100662;23;20390;-71
2022/10/04 02:52:50;;;;;;;12.10;4.90;;;;;;;40.42;35.60;100874.09;6100641;23;20429;-71
2022/10/04 02:55:16;;;;;;;19.30;6.97;;;;;;;40.64;35.65;100882.06;6100430;23;20433;-73
2022/10/04 02:57:43;;;;;;;10.50;6.20;;;;;;;40.41;35.80;100883.38;6101370;23;20401;-71
2022/10/04 03:00:15;;;;;;;10.97;5.73;;;;;;;40.69;35.35;100886.50;6100154;23;20422;-71
2022/10/04 03:02:41;;;;;;;9.80;5.10;;;;;;;40.81;35.16;100887.44;6127043;23;20367;-71
2022/10/04 03:05:11;;;;;;;17.73;5.20;;;;;;;40.89;35.10;100887.75;6100503;23;20382;-71
2022/10/04 03:07:38;;;;;;;17.23;6.83;;;;;;;40.32;35.85;100890.72;6126783;23;20389;-71
2022/10/04 03:10:11;;;;;;;18.00;8.10;;;;;;;40.49;35.84;100883.38;6100415;23;20393;-71
2022/10/04 03:12:40;;;;;;;7.97;4.07;;;;;;;40.44;35.98;100882.72;6126762;23;20366;-71
2022/10/04 03:15:10;;;;;;;14.07;5.90;;;;;;;40.36;36.31;100892.50;6126711;23;20414;-71
2022/10/04 03:17:36;;;;;;;7.37;5.03;;;;;;;40.48;35.92;100878.25;6126685;23;20385;-71
2022/10/04 03:20:04;;;;;;;12.37;5.23;;;;;;;40.66;35.45;100881.75;6076464;23;20401;-71
2022/10/04 03:22:31;;;;;;;15.80;5.90;;;;;;;40.48;35.80;100883.69;6126705;23;20362;-71
2022/10/04 03:24:57;;;;;;;13.67;7.27;;;;;;;40.58;35.82;100894.25;6052418;23;20448;-71
2022/10/04 03:27:35;;;;;;;10.13;7.37;;;;;;;40.46;35.80;100892.16;6100467;23;20406;-71
2022/10/04 03:30:01;;;;;;;11.13;4.60;;;;;;;40.55;35.44;100901.13;6077009;23;20437;-71
2022/10/04 03:32:29;;;;;;;9.70;4.00;;;;;;;40.73;35.15;100901.88;6100237;23;20756;-71
2022/10/04 03:35:04;;;;;;;15.00;7.17;;;;;;;40.94;35.09;100901.16;6076243;23;20432;-71
2022/10/04 03:37:35;;;;;;;11.63;4.53;;;;;;;41.40;34.17;100897.63;6100216;23;20425;-71
2022/10/04 03:40:03;;;;;;;11.90;6.40;;;;;;;41.37;34.61;100900.19;6076649;23;20386;-71
2022/10/04 03:42:33;;;;;;;11.13;5.33;;;;;;;41.04;34.71;100912.50;6126545;23;20354;-71
2022/10/04 03:45:07;;;;;;;18.03;6.00;;;;;;;41.30;34.33;100908.84;6052751;23;20783;-71
2022/10/04 03:47:43;;;;;;;10.93;5.90;;;;;;;41.49;34.14;100908.44;6100063;23;20386;-71
2022/10/04 03:50:28;;;;;;;10.20;5.67;;;;;;;41.56;34.20;100922.38;6099905;23;20392;-72
2022/10/04 03:52:58;;;;;;;10.17;5.33;;;;;;;41.71;33.59;100926.41;6126576;23;20369;-71
2022/10/04 03:55:35;;;;;;;15.17;5.50;;;;;;;41.56;34.04;100925.09;6052335;23;20425;-71
2022/10/04 03:58:02;;;;;;;20.30;5.97;;;;;;;41.54;34.09;100938.22;6100057;23;20380;-72
2022/10/04 04:00:28;;;;;;;10.40;5.40;;;;;;;41.48;33.78;100936.81;6075883;23;20378;-72
2022/10/04 04:02:59;;;;;;;14.80;5.87;;;;;;;41.76;33.34;100939.88;6076443;23;20469;-73
2022/10/04 04:05:30;;;;;;;11.23;6.27;;;;;;;41.69;33.49;100934.13;6099627;23;20378;-73
2022/10/04 04:08:02;;;;;;;10.80;5.43;;;;;;;41.85;33.38;100937.88;6101182;23;20819;-72
2022/10/04 04:10:36;;;;;;;21.63;7.33;;;;;;;41.80;33.28;100936.13;6125564;23;20373;-72
2022/10/04 04:13:10;;;;;;;12.00;5.77;;;;;;;41.73;33.49;100935.84;6076348;23;20393;-72
2022/10/04 04:15:42;;;;;;;15.80;6.40;;;;;;;41.52;33.95;100927.66;6099644;23;20435;-71
2022/10/04 04:18:36;;;;;;;13.80;7.60;;;;;;;41.64;33.85;100934.31;6099660;23;20449;-72
2022/10/04 04:21:05;;;;;;;14.03;5.70;;;;;;;41.54;34.27;100940.94;6121821;23;20389;-73
2022/10/04 04:23:33;;;;;;;20.87;6.87;;;;;;;41.85;33.65;100944.13;6099821;23;20409;-71
2022/10/04 04:26:22;;;;;;;16.80;5.80;;;;;;;41.41;34.38;100947.44;6099265;23;20512;-71
2022/10/04 04:28:57;;;;;;;12.10;5.33;;;;;;;41.06;34.47;100942.09;6099835;23;20386;-71
2022/10/04 04:31:32;;;;;;;21.77;5.47;;;;;;;41.49;33.83;100941.13;6099634;23;20875;-71
2022/10/04 04:34:05;;;;;;;18.40;5.40;;;;;;;41.50;33.81;100940.03;6099512;23;20499;-71
2022/10/04 04:36:40;;;;;;;9.97;5.87;;;;;;;41.55;34.05;100950.69;6099701;23;20410;-72
2022/10/04 04:41:57;;;;;;;15.53;5.27;;;;;;;41.56;33.80;100949.59;6125611;23;20369;-72
2022/10/04 04:44:25;;;;;;;9.27;5.63;;;;;;;41.63;33.78;100959.97;6099682;23;20386;-71
2022/10/04 04:46:52;;;;;;;11.70;5.53;;;;;;;41.64;34.09;100959.63;6126095;23;20367;-71
2022/10/04 04:49:18;;;;;;;16.03;6.53;;;;;;;41.59;34.18;100948.91;6099544;23;20392;-72
2022/10/04 04:51:51;;;;;;;9.33;5.37;;;;;;;41.69;34.03;100950.47;6099657;23;20422;-72
2022/10/04 04:54:22;;;;;;;14.30;6.23;;;;;;;41.92;33.47;100959.16;6099452;23;20436;-71
2022/10/04 04:56:51;;;;;;;11.20;5.93;;;;;;;41.98;33.48;100957.81;6126128;23;20397;-71
2022/10/04 04:59:20;;;;;;;13.80;6.00;;;;;;;41.92;33.40;100959.16;6099539;23;20382;-71
2022/10/04 05:01:47;;;;;;;10.43;5.50;;;;;;;41.88;33.26;100961.75;6099313;23;20444;-73
2022/10/04 05:04:13;;;;;;;11.13;6.00;;;;;;;41.88;33.33;100963.69;6099547;23;20878;-71
2022/10/04 05:07:01;;;;;;;16.93;5.83;;;;;;;41.63;33.94;100976.31;6099571;23;20385;-71
2022/10/04 05:09:32;;;;;;;9.40;4.50;;;;;;;41.77;33.53;100974.16;6099159;23;20401;-71
2022/10/04 05:12:08;;;;;;;14.57;6.57;;;;;;;41.73;33.31;100968.53;6099636;23;20410;-72
2022/10/04 05:14:38;;;;;;;20.33;6.53;;;;;;;41.78;33.23;100964.84;6125424;23;20481;-72
2022/10/04 05:17:05;;;;;;;13.23;6.17;;;;;;;41.73;33.15;100971.25;6099519;23;20393;-72
2022/10/04 05:19:38;;;;;;;15.33;8.50;;;;;;;41.68;33.22;100976.91;6125686;23;20447;-71
2022/10/04 05:22:13;;;;;;;7.80;4.80;;;;;;;41.19;33.96;100968.31;6099543;23;20386;-71
2022/10/04 05:24:42;;;;;;;9.00;5.27;;;;;;;41.51;33.27;100975.09;6100845;23;20856;-71
2022/10/04 05:27:16;;;;;;;9.07;4.17;;;;;;;41.71;32.99;100973.53;6101500;23;20765;-71
2022/10/04 05:30:07;;;;;;;14.67;6.27;;;;;;;41.55;33.35;100964.31;6101502;23;20393;-71
2022/10/04 05:32:53;;;;;;;27.73;6.93;;;;;;;41.38;33.97;100967.94;6101421;23;20386;-71
2022/10/04 05:35:21;;;;;;;15.17;7.57;;;;;;;41.57;33.56;100970.25;6101179;23;20508;-71
2022/10/04 05:38:05;;;;;;;14.20;7.10;;;;;;;41.66;33.38;100976.44;6101303;23;20394;-71
2022/10/04 05:40:49;;;;;;;20.70;5.40;;;;;;;41.30;33.95;100980.41;6127662;23;20450;-71
2022/10/04 05:43:58;;;;;;;16.43;6.23;;;;;;;41.57;33.36;100979.22;6101322;23;20440;-72
2022/10/04 05:46:27;;;;;;;10.33;5.87;;;;;;;41.43;33.95;100986.81;6076598;23;20480;-71
2022/10/04 05:49:14;;;;;;;14.83;7.10;;;;;;;41.49;34.06;100990.94;6101278;23;20869;-71
2022/10/04 05:52:02;;;;;;;11.10;5.10;;;;;;;41.67;33.56;100994.38;6127793;23;20454;-71
2022/10/04 05:54:33;;;;;;;11.00;6.70;;;;;;;41.10;34.38;100989.31;6127322;23;20437;-70
2022/10/04 05:57:20;;;;;;;12.23;5.63;;;;;;;41.56;33.81;100998.63;6098182;23;20445;-72
2022/10/04 06:00:08;;;;;;;28.13;7.43;;;;;;;41.63;33.69;101007.06;6126245;23;20362;-73
2022/10/04 06:03:12;;;;;;;11.80;5.47;;;;;;;41.52;33.69;101000.38;6098780;23;20463;-71
2022/10/04 06:05:43;;;;;;;13.77;6.17;;;;;;;41.70;33.25;101014.72;6096739;23;20463;-72
2022/10/04 06:08:15;;;;;;;17.60;8.87;;;;;;;41.66;33.81;101020.00;6114457;23;20457;-72
2022/10/04 06:11:02;;;;;;;13.03;6.03;;;;;;;41.92;33.28;101024.53;6154586;23;20362;-71
2022/10/04 06:13:58;;;;;;;20.30;9.70;;;;;;;41.77;33.52;101020.47;6126797;23;20451;-72
2022/10/04 06:16:41;;;;;;;32.97;17.40;;;;;;;41.74;33.07;101023.81;6129748;23;20887;-72
2022/10/04 06:19:24;;;;;;;20.03;10.43;;;;;;;41.68;33.16;101028.66;6154677;23;20401;-73
2022/10/04 06:21:52;;;;;;;17.37;7.90;;;;;;;41.74;33.47;101027.38;6154616;23;20425;-71
2022/10/04 06:24:25;;;;;;;21.30;12.23;;;;;;;41.77;33.14;101034.09;6130108;23;20381;-73
2022/10/04 06:27:09;;;;;;;20.70;12.30;;;;;;;42.02;32.87;101041.31;6128599;23;20396;-77
2022/10/04 06:29:48;;;;;;;13.10;10.33;;;;;;;41.68;33.25;101036.84;6129527;23;20484;-74
2022/10/04 06:32:36;;;;;;;14.13;7.30;;;;;;;41.86;33.16;101043.78;6156107;23;20361;-74
2022/10/04 06:35:50;;;;;;;15.80;7.93;;;;;;;42.03;32.92;101039.38;6155720;23;20451;-74
2022/10/04 06:38:39;;;;;;;18.37;10.90;;;;;;;42.10;32.83;101042.38;6128577;23;20719;-73
2022/10/04 06:41:20;;;;;;;20.90;8.53;;;;;;;41.80;32.82;101033.41;6154906;23;20405;-72
2022/10/04 06:44:21;;;;;;;21.00;7.30;;;;;;;41.75;33.12;101037.16;6154934;23;20354;-73
2022/10/04 06:47:12;;;;;;;26.50;11.10;;;;;;;41.88;33.31;101037.25;6049405;23;20589;-74
2022/10/04 06:49:49;;;;;;;17.80;7.87;;;;;;;42.12;32.78;101034.69;6122349;23;20441;-73
2022/10/04 06:52:53;;;;;;;15.33;7.07;;;;;;;41.71;33.27;101032.66;6097892;23;20740;-73
2022/10/04 06:55:45;;;;;;;17.10;6.67;;;;;;;41.65;34.01;101034.75;6098318;23;20421;-73
2022/10/04 06:58:45;;;;;;;18.33;7.20;;;;;;;42.20;32.99;101036.56;6098182;23;20390;-74
2022/10/04 07:01:27;;;;;;;10.13;6.10;;;;;;;41.86;33.39;101046.53;6100159;23;20382;-73
2022/10/04 07:04:14;;;;;;;15.00;6.43;;;;;;;41.75;33.74;101049.97;6100381;23;20370;-73
2022/10/04 07:07:22;;;;;;;8.07;5.40;;;;;;;42.19;33.31;101059.50;6100125;23;20382;-74
2022/10/04 07:09:44;;;;;;;24.30;9.60;;;;;;;42.22;33.12;101063.50;6126407;23;20907;-74
2022/10/04 07:12:16;;;;;;;23.37;7.73;;;;;;;42.56;32.60;101067.88;6100135;23;20417;-74
2022/10/04 07:14:54;;;;;;;10.97;6.30;;;;;;;42.23;32.58;101063.16;6124138;23;20434;-73
2022/10/04 07:17:26;;;;;;;18.90;6.17;;;;;;;42.38;32.54;101069.94;6100401;23;20408;-74
2022/10/04 07:19:54;;;;;;;11.57;6.13;;;;;;;42.55;32.13;101077.22;6100271;23;20974;-75
2022/10/04 07:22:49;;;;;;;18.07;5.70;;;;;;;42.44;32.23;101086.91;6100252;23;20441;-74
2022/10/04 07:25:41;;;;;;;14.93;7.10;;;;;;;42.74;32.13;101088.47;6126236;23;20378;-74
2022/10/04 07:31:05;;;;;;;15.10;5.90;;;;;;;42.32;33.34;101085.72;6126095;23;20370;-73
2022/10/04 07:33:40;;;;;;;13.67;5.90;;;;;;;42.72;32.42;101084.44;6099597;23;20736;-72
2022/10/04 07:36:14;;;;;;;11.27;5.57;;;;;;;42.50;32.67;101094.56;6099653;23;20398;-73
2022/10/04 07:39:03;;;;;;;11.73;5.77;;;;;;;42.84;32.22;101101.66;6100133;23;20414;-73
2022/10/04 07:41:38;;;;;;;14.13;6.30;;;;;;;42.86;32.21;101106.81;6100089;23;20390;-73
2022/10/04 07:44:12;;;;;;;19.13;6.73;;;;;;;43.01;31.67;101119.06;6100210;23;20410;-73
2022/10/04 07:46:51;;;;;;;9.87;4.83;;;;;;;42.76;31.96;101113.47;6100096;23;20489;-73
2022/10/04 07:49:22;;;;;;;11.77;6.63;;;;;;;43.00;31.61;101120.19;6097868;23;20393;-73
2022/10/04 07:52:11;;;;;;;11.53;6.03;;;;;;;42.40;32.57;101123.00;6097862;23;20943;-74
2022/10/04 07:55:07;;;;;;;12.10;4.57;;;;;;;42.74;32.10;101129.38;6097946;23;20456;-74
2022/10/04 07:57:57;;;;;;;15.23;8.00;;;;;;;42.93;32.35;101139.81;6067545;23;20382;-74
2022/10/04 08:00:27;;;;;;;14.23;5.97;;;;;;;42.79;32.19;101139.31;6097735;23;20384;-74
2022/10/04 08:03:39;;;;;;;11.57;6.23;;;;;;;42.74;32.44;101144.97;6098513;23;20481;-74
2022/10/04 08:06:31;;;;;;;9.33;4.53;;;;;;;42.75;32.20;101152.81;6126108;23;20395;-74
2022/10/04 08:09:18;;;;;;;10.77;4.00;;;;;;;42.52;32.25;101155.03;6095878;23;20382;-74
2022/10/04 08:11:47;;;;;;;8.50;6.57;;;;;;;42.56;31.89;101158.69;6099797;23;20385;-73
2022/10/04 08:14:31;;;;;;;18.10;7.07;;;;;;;42.48;31.92;101151.38;6125834;23;20764;-73
2022/10/04 08:17:13;;;;;;;18.17;5.70;;;;;;;42.59;32.05;101162.72;6099787;23;20378;-73
2022/10/04 08:19:59;;;;;;;13.23;6.23;;;;;;;42.85;31.89;101160.59;6126308;23;20394;-73
2022/10/04 08:22:36;;;;;;;9.30;4.63;;;;;;;42.85;31.69;101165.25;6099818;23;20417;-72
2022/10/04 08:25:09;;;;;;;10.00;5.57;;;;;;;42.36;32.08;101165.72;6099743;23;20476;-73
2022/10/04 08:29:41;;;;;;;9.60;6.60;;;;;;;42.40;32.40;101166.66;6126286;23;20417;-73
2022/10/04 08:30:56;;;;;;;8.73;5.40;;;;;;;42.93;31.39;101164.38;6124972;23;20366;-73
2022/10/04 08:33:39;;;;;;;9.33;5.27;;;;;;;42.99;31.46;101165.00;6125885;23;20746;-73
2022/10/04 08:36:11;;;;;;;12.70;5.90;;;;;;;42.56;32.04;101163.34;6099555;23;20402;-74
2022/10/04 08:38:52;;;;;;;13.00;4.87;;;;;;;42.30;32.49;101161.59;6099667;23;20500;-74
2022/10/04 08:41:44;;;;;;;14.20;4.57;;;;;;;42.18;32.36;101177.06;6099520;23;20422;-74
2022/10/04 08:44:44;;;;;;;9.30;4.90;;;;;;;42.14;32.73;101169.50;6099693;23;20417;-74
2022/10/04 08:47:21;;;;;;;10.30;4.47;;;;;;;42.14;33.00;101171.44;6099586;23;20409;-74
2022/10/04 08:50:28;;;;;;;10.20;5.23;;;;;;;41.88;32.99;101171.53;6099692;23;20413;-74
2022/10/04 08:53:21;;;;;;;10.90;5.13;;;;;;;42.29;32.52;101167.34;6012684;23;20822;-74
2022/10/04 08:55:59;;;;;;;11.13;5.50;;;;;;;42.25;32.59;101169.16;6012550;23;20485;-73
2022/10/04 08:58:53;;;;;;;10.30;4.90;;;;;;;42.08;32.70;101159.09;6076130;23;20393;-73
2022/10/04 09:01:25;;;;;;;9.93;5.07;;;;;;;42.26;32.24;101168.03;6125441;23;20851;-73
2022/10/04 09:04:24;;;;;;;10.23;6.10;;;;;;;42.08;32.96;101156.38;6125907;23;20441;-73
2022/10/04 09:06:53;;;;;;;18.80;9.90;;;;;;;42.10;33.01;101160.38;6099429;23;20454;-73
2022/10/04 09:09:39;;;;;;;9.47;6.27;;;;;;;42.47;32.44;101159.88;6125966;23;20409;-73
2022/10/04 09:12:09;;;;;;;14.50;6.70;;;;;;;42.45;32.40;101162.13;6126048;23;20344;-73
2022/10/04 09:15:13;;;;;;;12.33;4.40;;;;;;;41.58;33.22;101168.72;6099094;23;20532;-73
2022/10/04 09:18:00;;;;;;;11.07;5.67;;;;;;;41.92;33.51;101161.56;6099489;23;20401;-73
2022/10/04 09:20:49;;;;;;;11.00;4.93;;;;;;;41.91;33.46;101168.16;6099481;23;20433;-75
2022/10/04 09:23:21;;;;;;;17.60;6.27;;;;;;;42.46;32.28;101167.25;6099458;23;20378;-74
2022/10/04 09:26:05;;;;;;;13.90;4.90;;;;;;;42.15;32.85;101164.84;6125840;23;20421;-73
2022/10/04 09:29:15;;;;;;;12.87;8.20;;;;;;;42.31;32.66;101160.47;6126101;23;20355;-73
2022/10/04 09:31:47;;;;;;;15.87;6.00;;;;;;;42.36;32.77;101170.38;6099592;23;20378;-74
2022/10/04 09:34:32;;;;;;;12.27;6.30;;;;;;;42.56;32.44;101160.63;6099318;23;20922;-75
2022/10/04 09:37:25;;;;;;;10.17;5.60;;;;;;;42.61;32.26;101172.16;6125935;23;20387;-74
2022/10/04 09:40:19;;;;;;;8.53;4.50;;;;;;;42.52;32.60;101163.22;6099446;23;20388;-74
2022/10/04 09:43:08;;;;;;;11.23;4.87;;;;;;;42.82;32.16;101166.72;6125867;23;20362;-73
2022/10/04 09:46:06;;;;;;;8.73;6.07;;;;;;;42.61;32.41;101166.72;6078541;23;20510;-73
2022/10/04 09:48:41;;;;;;;8.00;4.30;;;;;;;42.28;32.55;101163.84;6099319;23;20382;-72
2022/10/04 09:51:24;;;;;;;11.53;4.60;;;;;;;42.52;32.40;101165.94;6125739;23;20362;-74
2022/10/04 09:53:56;;;;;;;8.17;5.10;;;;;;;42.93;32.07;101167.91;6125642;23;20410;-74
2022/10/04 09:56:34;;;;;;;9.70;5.10;;;;;;;42.69;32.22;101167.78;6099294;23;20461;-74
2022/10/04 09:59:36;;;;;;;15.03;5.67;;;;;;;42.65;31.80;101166.84;6125582;23;20799;-74
2022/10/04 10:02:07;;;;;;;11.87;5.40;;;;;;;42.84;31.99;101163.63;6099355;23;20460;-76
2022/10/04 10:05:21;;;;;;;23.70;5.67;;;;;;;42.74;32.38;101164.84;6099060;23;20760;-75
2022/10/04 10:07:59;;;;;;;15.33;4.60;;;;;;;42.78;31.70;101173.16;6075293;23;20390;-74
2022/10/04 10:13:58;;;;;;;7.57;4.90;;;;;;;42.93;32.19;101167.91;6126692;23;20393;-74
2022/10/04 10:16:28;;;;;;;12.13;4.43;;;;;;;42.62;31.57;101176.50;6101125;23;20409;-73
2022/10/04 10:19:15;;;;;;;11.60;4.10;;;;;;;42.60;31.75;101175.22;6100880;23;20460;-73
2022/10/04 10:21:54;;;;;;;12.13;4.40;;;;;;;42.48;32.22;101170.47;6127262;23;20405;-73
2022/10/04 10:24:42;;;;;;;15.20;5.40;;;;;;;42.95;31.72;101161.31;6127288;23;20416;-73
2022/10/04 10:27:29;;;;;;;8.30;5.23;;;;;;;43.05;31.14;101164.47;6127198;23;20873;-73
2022/10/04 10:30:14;;;;;;;8.67;3.77;;;;;;;43.14;31.17;101167.09;6100907;23;20385;-72
2022/10/04 10:33:08;;;;;;;9.13;4.43;;;;;;;42.30;32.35;101152.63;6100837;23;20405;-72
2022/10/04 10:36:07;;;;;;;6.20;3.00;;;;;;;42.44;32.12;101152.38;6100656;23;20418;-73
2022/10/04 10:38:50;;;;;;;17.60;5.00;;;;;;;41.93;33.19;101146.03;6100725;23;20424;-73
2022/10/04 10:41:47;;;;;;;16.30;4.33;;;;;;;42.51;32.21;101149.91;6126831;23;20405;-72
2022/10/04 10:44:31;;;;;;;7.67;3.60;;;;;;;42.38;32.53;101138.91;6100621;23;20401;-73
2022/10/04 10:47:32;;;;;;;8.37;3.90;;;;;;;42.90;31.68;101137.75;6127036;23;20703;-73
2022/10/04 10:50:21;;;;;;;7.60;4.10;;;;;;;42.93;31.67;101132.44;6100824;23;20398;-73
2022/10/04 10:53:05;;;;;;;9.63;5.10;;;;;;;43.12;31.59;101128.44;6100636;23;20963;-74
2022/10/04 10:56:08;;;;;;;9.00;5.10;;;;;;;42.60;32.42;101128.84;6100442;23;20495;-76
2022/10/04 10:58:50;;;;;;;15.37;4.10;;;;;;;42.12;32.47;101121.91;6100451;23;20440;-76
2022/10/04 11:01:28;;;;;;;10.40;5.00;;;;;;;42.29;32.47;101121.81;6127007;23;20358;-75
2022/10/04 11:03:54;;;;;;;7.20;5.33;;;;;;;42.51;32.29;101122.63;6100424;23;20421;-75
2022/10/04 11:06:57;;;;;;;10.63;5.27;;;;;;;42.34;32.89;101124.34;6126954;23;20446;-74
2022/10/04 11:09:28;;;;;;;8.77;4.37;;;;;;;42.13;33.05;101113.38;6100475;23;20766;-74
2022/10/04 11:12:06;;;;;;;9.03;4.10;;;;;;;42.42;32.29;101114.53;6100430;23;20382;-74
2022/10/04 11:15:03;;;;;;;7.47;4.67;;;;;;;42.18;32.95;101115.16;6126551;23;20449;-74
2022/10/04 11:18:12;;;;;;;6.60;3.97;;;;;;;42.83;31.97;101111.00;6127245;23;20366;-74
2022/10/04 11:21:02;;;;;;;5.50;3.37;;;;;;;42.70;31.94;101103.09;6100464;23;20382;-74
2022/10/04 11:23:43;;;;;;;7.67;3.97;;;;;;;42.74;31.65;101104.84;6100159;23;20413;-74
2022/10/04 11:26:36;;;;;;;13.20;5.60;;;;;;;43.24;31.11;101108.56;6126355;23;20350;-74
2022/10/04 11:29:24;;;;;;;9.93;5.27;;;;;;;43.26;31.34;101106.28;6100035;23;20481;-74
2022/10/04 11:32:17;;;;;;;6.90;4.10;;;;;;;43.23;30.97;101101.50;6100213;23;20401;-74
2022/10/04 11:35:02;;;;;;;9.47;4.80;;;;;;;43.37;30.80;101088.31;6100185;23;20436;-75
2022/10/04 11:37:52;;;;;;;9.27;4.80;;;;;;;43.19;30.79;101088.50;6126303;23;20398;-75
2022/10/04 11:40:34;;;;;;;6.70;4.07;;;;;;;42.95;30.99;101088.41;6100064;23;20394;-75
2022/10/04 11:43:26;;;;;;;13.13;5.10;;;;;;;42.95;31.00;101084.88;6100087;23;20390;-73
2022/10/04 11:46:10;;;;;;;12.47;4.30;;;;;;;42.42;31.74;101078.25;6100258;23;20406;-74
2022/10/04 11:48:52;;;;;;;12.00;5.93;;;;;;;42.55;32.20;101069.81;6099823;23;20414;-73
2022/10/04 11:51:36;;;;;;;7.80;3.70;;;;;;;42.46;32.05;101058.16;6100037;23;20746;-73
2022/10/04 11:54:16;;;;;;;10.13;4.80;;;;;;;42.16;32.46;101062.88;6126385;23;20863;-73
2022/10/04 11:57:06;;;;;;;11.87;5.10;;;;;;;42.31;32.47;101058.78;6100020;23;20878;-73
2022/10/04 11:59:55;;;;;;;7.30;4.30;;;;;;;42.63;31.67;101041.69;6100064;23;20863;-75
2022/10/04 12:02:33;;;;;;;6.90;4.10;;;;;;;42.48;31.90;101041.47;6099980;23;20453;-75
2022/10/04 12:05:05;;;;;;;10.60;4.93;;;;;;;42.80;31.82;101039.94;6099780;23;20441;-74
2022/10/04 12:07:43;;;;;;;9.57;4.20;;;;;;;42.54;32.23;101023.78;6099985;23;20442;-73
2022/10/04 12:10:21;;;;;;;7.20;3.73;;;;;;;42.76;31.94;101026.16;6099916;23;20392;-73
2022/10/04 12:12:59;;;;;;;12.83;4.60;;;;;;;43.12;31.26;101020.03;6099948;23;20421;-73
2022/10/04 12:15:44;;;;;;;10.37;5.10;;;;;;;42.88;31.56;101017.22;6125576;23;20464;-75
2022/10/04 12:18:35;;;;;;;10.10;4.03;;;;;;;43.05;31.38;101021.72;6099721;23;20413;-75
2022/10/04 12:21:37;;;;;;;11.57;4.27;;;;;;;42.70;31.68;101015.81;6099736;23;20382;-74
2022/10/04 12:24:22;;;;;;;9.20;5.33;;;;;;;42.74;31.63;101001.16;6099686;23;20384;-74
2022/10/04 12:26:54;;;;;;;12.97;4.07;;;;;;;42.70;31.35;100997.50;6126328;23;20367;-73
2022/10/04 12:30:03;;;;;;;9.20;4.60;;;;;;;43.07;31.16;100992.94;6099725;23;20385;-74